sensor_id;sensor_type;location;lat;lon;timestamp;temperature;humidity
21355;DHT22;10835;50.148;19.760;2023-10-31T00:00:58;24.70;55.90
21355;DHT22;10835;50.148;19.760;2023-10-31T00:03:26;24.70;56.10
21355;DHT22;10835;50.148;19.760;2023-10-31T00:05:56;25.00;55.40
21355;DHT22;10835;50.148;19.760;2023-10-31T00:08:24;25.00;55.90
21355;DHT22;10835;50.148;19.760;2023-10-31T00:10:53;25.30;54.70
21355;DHT22;10835;50.148;19.760;2023-10-31T00:13:21;25.30;54.40
21355;DHT22;10835;50.148;19.760;2023-10-31T00:15:50;25.30;54.60
21355;DHT22;10835;50.148;19.760;2023-10-31T00:18:18;24.70;55.10
21355;DHT22;10835;50.148;19.760;2023-10-31T00:20:46;24.40;55.90
21355;DHT22;10835;50.148;19.760;2023-10-31T00:23:16;24.40;57.20
21355;DHT22;10835;50.148;19.760;2023-10-31T00:25:45;24.30;56.10
21355;DHT22;10835;50.148;19.760;2023-10-31T00:28:13;23.90;56.80
21355;DHT22;10835;50.148;19.760;2023-10-31T00:30:42;23.50;57.70
21355;DHT22;10835;50.148;19.760;2023-10-31T00:33:10;23.50;58.20
21355;DHT22;10835;50.148;19.760;2023-10-31T00:35:38;23.60;58.20
21355;DHT22;10835;50.148;19.760;2023-10-31T00:38:07;23.90;57.70
21355;DHT22;10835;50.148;19.760;2023-10-31T00:40:36;24.60;56.80
21355;DHT22;10835;50.148;19.760;2023-10-31T00:43:05;24.40;56.60
21355;DHT22;10835;50.148;19.760;2023-10-31T00:45:33;24.60;56.50
21355;DHT22;10835;50.148;19.760;2023-10-31T00:48:02;24.50;56.30
21355;DHT22;10835;50.148;19.760;2023-10-31T00:50:30;24.20;57.10
21355;DHT22;10835;50.148;19.760;2023-10-31T00:52:59;24.10;57.10
21355;DHT22;10835;50.148;19.760;2023-10-31T00:55:27;24.40;56.80
21355;DHT22;10835;50.148;19.760;2023-10-31T00:57:57;24.90;55.70
21355;DHT22;10835;50.148;19.760;2023-10-31T01:00:25;24.90;55.50
21355;DHT22;10835;50.148;19.760;2023-10-31T01:02:55;25.10;55.20
21355;DHT22;10835;50.148;19.760;2023-10-31T01:05:23;24.70;55.90
21355;DHT22;10835;50.148;19.760;2023-10-31T01:07:52;24.70;55.90
21355;DHT22;10835;50.148;19.760;2023-10-31T01:10:20;24.10;56.80
21355;DHT22;10835;50.148;19.760;2023-10-31T01:12:52;24.50;56.80
21355;DHT22;10835;50.148;19.760;2023-10-31T01:15:22;24.50;56.20
21355;DHT22;10835;50.148;19.760;2023-10-31T01:17:52;24.30;56.60
21355;DHT22;10835;50.148;19.760;2023-10-31T01:20:20;24.70;56.20
21355;DHT22;10835;50.148;19.760;2023-10-31T01:22:49;25.10;55.50
21355;DHT22;10835;50.148;19.760;2023-10-31T01:25:17;24.60;55.90
21355;DHT22;10835;50.148;19.760;2023-10-31T01:27:45;24.80;56.00
21355;DHT22;10835;50.148;19.760;2023-10-31T01:30:14;25.10;55.40
21355;DHT22;10835;50.148;19.760;2023-10-31T01:32:44;24.50;55.90
21355;DHT22;10835;50.148;19.760;2023-10-31T01:35:12;24.90;55.80
21355;DHT22;10835;50.148;19.760;2023-10-31T01:37:41;24.80;55.80
21355;DHT22;10835;50.148;19.760;2023-10-31T01:40:13;25.40;55.30
21355;DHT22;10835;50.148;19.760;2023-10-31T01:42:41;25.60;54.40
21355;DHT22;10835;50.148;19.760;2023-10-31T01:45:10;25.90;53.50
21355;DHT22;10835;50.148;19.760;2023-10-31T01:47:39;26.00;53.30
21355;DHT22;10835;50.148;19.760;2023-10-31T01:50:10;25.80;53.70
21355;DHT22;10835;50.148;19.760;2023-10-31T01:52:39;25.80;53.60
21355;DHT22;10835;50.148;19.760;2023-10-31T01:55:08;26.10;53.20
21355;DHT22;10835;50.148;19.760;2023-10-31T01:57:37;25.40;53.80
21355;DHT22;10835;50.148;19.760;2023-10-31T02:00:07;24.80;54.80
21355;DHT22;10835;50.148;19.760;2023-10-31T02:02:40;25.00;55.50
21355;DHT22;10835;50.148;19.760;2023-10-31T02:05:11;25.50;54.90
21355;DHT22;10835;50.148;19.760;2023-10-31T02:07:39;24.90;55.10
21355;DHT22;10835;50.148;19.760;2023-10-31T02:10:08;25.00;55.10
21355;DHT22;10835;50.148;19.760;2023-10-31T02:12:37;25.00;55.50
21355;DHT22;10835;50.148;19.760;2023-10-31T02:15:07;25.50;54.60
21355;DHT22;10835;50.148;19.760;2023-10-31T02:17:36;25.50;54.60
21355;DHT22;10835;50.148;19.760;2023-10-31T02:20:05;25.30;55.00
21355;DHT22;10835;50.148;19.760;2023-10-31T02:22:35;25.50;54.70
21355;DHT22;10835;50.148;19.760;2023-10-31T02:25:16;25.70;53.40
21355;DHT22;10835;50.148;19.760;2023-10-31T02:27:44;25.60;53.60
21355;DHT22;10835;50.148;19.760;2023-10-31T02:30:13;25.80;53.60
21355;DHT22;10835;50.148;19.760;2023-10-31T02:32:42;25.50;54.20
21355;DHT22;10835;50.148;19.760;2023-10-31T02:35:11;26.00;53.90
21355;DHT22;10835;50.148;19.760;2023-10-31T02:37:41;25.60;53.90
21355;DHT22;10835;50.148;19.760;2023-10-31T02:40:10;25.70;53.90
21355;DHT22;10835;50.148;19.760;2023-10-31T02:42:39;25.80;54.00
21355;DHT22;10835;50.148;19.760;2023-10-31T02:45:08;25.20;54.20
21355;DHT22;10835;50.148;19.760;2023-10-31T02:47:36;25.50;54.70
21355;DHT22;10835;50.148;19.760;2023-10-31T02:50:06;25.50;54.50
21355;DHT22;10835;50.148;19.760;2023-10-31T02:52:34;25.60;54.80
21355;DHT22;10835;50.148;19.760;2023-10-31T02:55:05;25.30;54.70
21355;DHT22;10835;50.148;19.760;2023-10-31T02:57:33;25.30;54.50
21355;DHT22;10835;50.148;19.760;2023-10-31T03:00:02;25.30;54.60
21355;DHT22;10835;50.148;19.760;2023-10-31T03:02:30;24.60;55.10
21355;DHT22;10835;50.148;19.760;2023-10-31T03:04:59;24.20;56.00
21355;DHT22;10835;50.148;19.760;2023-10-31T03:07:28;24.40;55.70
21355;DHT22;10835;50.148;19.760;2023-10-31T03:09:56;24.30;56.30
21355;DHT22;10835;50.148;19.760;2023-10-31T03:12:26;24.60;56.10
21355;DHT22;10835;50.148;19.760;2023-10-31T03:14:56;24.70;55.50
21355;DHT22;10835;50.148;19.760;2023-10-31T03:17:24;25.00;55.20
21355;DHT22;10835;50.148;19.760;2023-10-31T03:19:55;25.40;55.00
21355;DHT22;10835;50.148;19.760;2023-10-31T03:22:23;25.50;54.10
21355;DHT22;10835;50.148;19.760;2023-10-31T03:24:52;25.10;54.40
21355;DHT22;10835;50.148;19.760;2023-10-31T03:27:20;25.30;54.20
21355;DHT22;10835;50.148;19.760;2023-10-31T03:29:50;25.00;54.60
21355;DHT22;10835;50.148;19.760;2023-10-31T03:32:18;25.20;54.50
21355;DHT22;10835;50.148;19.760;2023-10-31T03:34:46;25.50;54.30
21355;DHT22;10835;50.148;19.760;2023-10-31T03:37:15;25.80;53.70
21355;DHT22;10835;50.148;19.760;2023-10-31T03:39:43;26.00;53.40
21355;DHT22;10835;50.148;19.760;2023-10-31T03:42:11;25.70;53.00
21355;DHT22;10835;50.148;19.760;2023-10-31T03:44:40;25.40;53.40
21355;DHT22;10835;50.148;19.760;2023-10-31T03:47:09;25.50;53.80
21355;DHT22;10835;50.148;19.760;2023-10-31T03:49:39;25.10;54.00
21355;DHT22;10835;50.148;19.760;2023-10-31T03:52:07;25.10;54.40
21355;DHT22;10835;50.148;19.760;2023-10-31T03:54:36;25.30;54.20
21355;DHT22;10835;50.148;19.760;2023-10-31T03:57:04;25.40;54.10
21355;DHT22;10835;50.148;19.760;2023-10-31T03:59:33;25.80;53.00
21355;DHT22;10835;50.148;19.760;2023-10-31T04:02:01;25.90;53.10
21355;DHT22;10835;50.148;19.760;2023-10-31T04:04:31;25.60;53.70
21355;DHT22;10835;50.148;19.760;2023-10-31T04:06:59;25.40;53.70
21355;DHT22;10835;50.148;19.760;2023-10-31T04:09:28;24.70;54.70
21355;DHT22;10835;50.148;19.760;2023-10-31T04:11:56;24.50;55.20
21355;DHT22;10835;50.148;19.760;2023-10-31T04:14:24;24.80;55.10
21355;DHT22;10835;50.148;19.760;2023-10-31T04:16:53;25.10;54.90
21355;DHT22;10835;50.148;19.760;2023-10-31T04:19:21;25.50;54.30
21355;DHT22;10835;50.148;19.760;2023-10-31T04:21:53;24.90;54.40
21355;DHT22;10835;50.148;19.760;2023-10-31T04:24:22;25.10;55.00
21355;DHT22;10835;50.148;19.760;2023-10-31T04:26:50;25.30;55.00
21355;DHT22;10835;50.148;19.760;2023-10-31T04:29:19;25.00;54.50
21355;DHT22;10835;50.148;19.760;2023-10-31T04:31:47;24.90;55.00
21355;DHT22;10835;50.148;19.760;2023-10-31T04:34:15;24.70;55.00
21355;DHT22;10835;50.148;19.760;2023-10-31T04:36:44;24.50;55.50
21355;DHT22;10835;50.148;19.760;2023-10-31T04:39:13;25.20;55.20
21355;DHT22;10835;50.148;19.760;2023-10-31T04:41:42;24.70;55.00
21355;DHT22;10835;50.148;19.760;2023-10-31T04:44:10;24.60;55.30
21355;DHT22;10835;50.148;19.760;2023-10-31T04:46:39;24.90;55.30
21355;DHT22;10835;50.148;19.760;2023-10-31T04:49:07;24.70;55.00
21355;DHT22;10835;50.148;19.760;2023-10-31T04:51:36;24.70;55.70
21355;DHT22;10835;50.148;19.760;2023-10-31T04:54:05;25.20;55.20
21355;DHT22;10835;50.148;19.760;2023-10-31T04:56:35;24.60;54.80
21355;DHT22;10835;50.148;19.760;2023-10-31T04:59:03;24.40;55.40
21355;DHT22;10835;50.148;19.760;2023-10-31T05:01:32;24.30;55.10
21355;DHT22;10835;50.148;19.760;2023-10-31T05:04:01;24.20;56.10
21355;DHT22;10835;50.148;19.760;2023-10-31T05:06:39;23.70;56.60
21355;DHT22;10835;50.148;19.760;2023-10-31T05:09:10;24.50;56.20
21355;DHT22;10835;50.148;19.760;2023-10-31T05:11:40;24.90;55.40
21355;DHT22;10835;50.148;19.760;2023-10-31T05:14:09;25.00;54.80
21355;DHT22;10835;50.148;19.760;2023-10-31T05:16:41;24.30;55.20
21355;DHT22;10835;50.148;19.760;2023-10-31T05:19:10;24.60;55.70
21355;DHT22;10835;50.148;19.760;2023-10-31T05:21:39;24.80;55.00
21355;DHT22;10835;50.148;19.760;2023-10-31T05:24:07;24.90;54.40
21355;DHT22;10835;50.148;19.760;2023-10-31T05:26:36;25.20;54.60
21355;DHT22;10835;50.148;19.760;2023-10-31T05:29:06;24.80;55.10
21355;DHT22;10835;50.148;19.760;2023-10-31T05:31:34;25.10;54.50
21355;DHT22;10835;50.148;19.760;2023-10-31T05:34:03;25.30;54.40
21355;DHT22;10835;50.148;19.760;2023-10-31T05:36:31;25.10;54.60
21355;DHT22;10835;50.148;19.760;2023-10-31T05:39:00;25.20;53.80
21355;DHT22;10835;50.148;19.760;2023-10-31T05:41:28;25.80;53.20
21355;DHT22;10835;50.148;19.760;2023-10-31T05:43:57;25.40;52.40
21355;DHT22;10835;50.148;19.760;2023-10-31T05:46:26;25.60;50.60
21355;DHT22;10835;50.148;19.760;2023-10-31T05:48:55;25.90;49.50
21355;DHT22;10835;50.148;19.760;2023-10-31T05:51:23;25.40;49.10
21355;DHT22;10835;50.148;19.760;2023-10-31T05:53:53;24.90;49.60
21355;DHT22;10835;50.148;19.760;2023-10-31T05:56:21;24.50;49.50
21355;DHT22;10835;50.148;19.760;2023-10-31T05:58:52;24.50;50.00
21355;DHT22;10835;50.148;19.760;2023-10-31T06:01:21;24.50;49.60
21355;DHT22;10835;50.148;19.760;2023-10-31T06:03:51;24.70;48.40
21355;DHT22;10835;50.148;19.760;2023-10-31T06:06:19;24.90;49.00
21355;DHT22;10835;50.148;19.760;2023-10-31T06:08:48;24.90;48.40
21355;DHT22;10835;50.148;19.760;2023-10-31T06:11:16;24.90;47.80
21355;DHT22;10835;50.148;19.760;2023-10-31T06:13:44;25.00;48.30
21355;DHT22;10835;50.148;19.760;2023-10-31T06:16:15;25.10;48.10
21355;DHT22;10835;50.148;19.760;2023-10-31T06:18:43;25.10;47.70
21355;DHT22;10835;50.148;19.760;2023-10-31T06:21:13;25.40;47.60
21355;DHT22;10835;50.148;19.760;2023-10-31T06:23:41;25.90;47.00
21355;DHT22;10835;50.148;19.760;2023-10-31T06:26:12;25.80;46.50
21355;DHT22;10835;50.148;19.760;2023-10-31T06:28:40;25.80;46.50
21355;DHT22;10835;50.148;19.760;2023-10-31T06:31:24;25.90;46.90
21355;DHT22;10835;50.148;19.760;2023-10-31T06:33:52;25.70;46.50
21355;DHT22;10835;50.148;19.760;2023-10-31T06:36:22;25.80;45.50
21355;DHT22;10835;50.148;19.760;2023-10-31T06:38:50;25.90;46.40
21355;DHT22;10835;50.148;19.760;2023-10-31T06:41:19;26.20;46.00
21355;DHT22;10835;50.148;19.760;2023-10-31T06:43:47;26.60;45.70
21355;DHT22;10835;50.148;19.760;2023-10-31T06:46:15;26.80;45.00
21355;DHT22;10835;50.148;19.760;2023-10-31T06:48:44;26.90;45.00
21355;DHT22;10835;50.148;19.760;2023-10-31T06:51:12;27.50;44.60
21355;DHT22;10835;50.148;19.760;2023-10-31T06:53:42;27.80;44.00
21355;DHT22;10835;50.148;19.760;2023-10-31T06:56:13;27.80;42.70
21355;DHT22;10835;50.148;19.760;2023-10-31T06:58:41;27.60;43.50
21355;DHT22;10835;50.148;19.760;2023-10-31T07:01:10;27.30;43.70
21355;DHT22;10835;50.148;19.760;2023-10-31T07:03:39;27.10;44.30
21355;DHT22;10835;50.148;19.760;2023-10-31T07:06:08;27.10;43.80
21355;DHT22;10835;50.148;19.760;2023-10-31T07:08:36;27.60;44.70
21355;DHT22;10835;50.148;19.760;2023-10-31T07:11:06;27.40;43.80
21355;DHT22;10835;50.148;19.760;2023-10-31T07:13:34;27.70;43.20
21355;DHT22;10835;50.148;19.760;2023-10-31T07:16:03;27.50;43.80
21355;DHT22;10835;50.148;19.760;2023-10-31T07:18:32;27.50;44.00
21355;DHT22;10835;50.148;19.760;2023-10-31T07:21:00;27.20;43.60
21355;DHT22;10835;50.148;19.760;2023-10-31T07:23:29;26.90;44.20
21355;DHT22;10835;50.148;19.760;2023-10-31T07:25:58;26.80;44.20
21355;DHT22;10835;50.148;19.760;2023-10-31T07:28:28;26.70;44.10
21355;DHT22;10835;50.148;19.760;2023-10-31T07:30:56;26.80;44.60
21355;DHT22;10835;50.148;19.760;2023-10-31T07:33:24;26.90;44.80
21355;DHT22;10835;50.148;19.760;2023-10-31T07:35:53;27.60;43.90
21355;DHT22;10835;50.148;19.760;2023-10-31T07:38:21;27.60;43.80
21355;DHT22;10835;50.148;19.760;2023-10-31T07:40:49;27.60;44.50
21355;DHT22;10835;50.148;19.760;2023-10-31T07:43:18;27.70;43.90
21355;DHT22;10835;50.148;19.760;2023-10-31T07:45:48;27.60;43.70
21355;DHT22;10835;50.148;19.760;2023-10-31T07:48:16;27.70;44.20
21355;DHT22;10835;50.148;19.760;2023-10-31T07:50:44;28.30;44.10
21355;DHT22;10835;50.148;19.760;2023-10-31T07:53:13;28.30;43.60
21355;DHT22;10835;50.148;19.760;2023-10-31T07:55:41;28.00;43.60
21355;DHT22;10835;50.148;19.760;2023-10-31T07:58:09;28.20;44.10
21355;DHT22;10835;50.148;19.760;2023-10-31T08:00:38;28.30;43.60
21355;DHT22;10835;50.148;19.760;2023-10-31T08:03:08;27.80;43.80
21355;DHT22;10835;50.148;19.760;2023-10-31T08:05:36;27.70;44.30
21355;DHT22;10835;50.148;19.760;2023-10-31T08:08:05;27.80;45.00
21355;DHT22;10835;50.148;19.760;2023-10-31T08:10:33;27.90;45.00
21355;DHT22;10835;50.148;19.760;2023-10-31T08:13:02;27.90;45.10
21355;DHT22;10835;50.148;19.760;2023-10-31T08:15:30;27.90;45.90
21355;DHT22;10835;50.148;19.760;2023-10-31T08:17:58;28.20;45.50
21355;DHT22;10835;50.148;19.760;2023-10-31T08:20:28;28.40;45.20
21355;DHT22;10835;50.148;19.760;2023-10-31T08:23:00;28.30;45.40
21355;DHT22;10835;50.148;19.760;2023-10-31T08:25:30;28.40;45.30
21355;DHT22;10835;50.148;19.760;2023-10-31T08:27:59;28.40;45.30
21355;DHT22;10835;50.148;19.760;2023-10-31T08:30:27;28.60;45.00
21355;DHT22;10835;50.148;19.760;2023-10-31T08:32:55;28.80;45.30
21355;DHT22;10835;50.148;19.760;2023-10-31T08:35:24;28.80;44.90
21355;DHT22;10835;50.148;19.760;2023-10-31T08:37:54;29.10;44.90
21355;DHT22;10835;50.148;19.760;2023-10-31T08:40:22;29.10;44.70
21355;DHT22;10835;50.148;19.760;2023-10-31T08:42:51;29.30;45.00
21355;DHT22;10835;50.148;19.760;2023-10-31T08:45:19;29.60;44.80
21355;DHT22;10835;50.148;19.760;2023-10-31T08:47:50;29.80;44.40
21355;DHT22;10835;50.148;19.760;2023-10-31T08:50:18;29.90;44.00
21355;DHT22;10835;50.148;19.760;2023-10-31T08:52:50;29.90;44.90
21355;DHT22;10835;50.148;19.760;2023-10-31T08:55:19;29.90;44.30
21355;DHT22;10835;50.148;19.760;2023-10-31T08:57:48;29.90;43.30
21355;DHT22;10835;50.148;19.760;2023-10-31T09:00:19;29.80;43.70
21355;DHT22;10835;50.148;19.760;2023-10-31T09:02:47;29.50;43.80
21355;DHT22;10835;50.148;19.760;2023-10-31T09:05:16;28.80;43.60
21355;DHT22;10835;50.148;19.760;2023-10-31T09:07:44;28.30;44.60
21355;DHT22;10835;50.148;19.760;2023-10-31T09:10:13;28.10;45.50
21355;DHT22;10835;50.148;19.760;2023-10-31T09:12:45;27.90;45.50
21355;DHT22;10835;50.148;19.760;2023-10-31T09:15:14;28.10;46.40
21355;DHT22;10835;50.148;19.760;2023-10-31T09:17:46;28.20;46.00
21355;DHT22;10835;50.148;19.760;2023-10-31T09:20:17;28.40;46.60
21355;DHT22;10835;50.148;19.760;2023-10-31T09:22:45;28.60;45.70
21355;DHT22;10835;50.148;19.760;2023-10-31T09:25:14;29.00;45.10
21355;DHT22;10835;50.148;19.760;2023-10-31T09:27:42;28.90;44.80
21355;DHT22;10835;50.148;19.760;2023-10-31T09:30:12;28.90;45.20
21355;DHT22;10835;50.148;19.760;2023-10-31T09:32:41;28.90;45.60
21355;DHT22;10835;50.148;19.760;2023-10-31T09:35:09;28.90;44.80
21355;DHT22;10835;50.148;19.760;2023-10-31T09:37:39;28.80;45.00
21355;DHT22;10835;50.148;19.760;2023-10-31T09:40:08;28.50;45.50
21355;DHT22;10835;50.148;19.760;2023-10-31T09:42:37;28.50;45.70
21355;DHT22;10835;50.148;19.760;2023-10-31T09:45:06;28.30;45.70
21355;DHT22;10835;50.148;19.760;2023-10-31T09:47:37;28.40;45.90
21355;DHT22;10835;50.148;19.760;2023-10-31T09:50:06;28.20;45.40
21355;DHT22;10835;50.148;19.760;2023-10-31T09:52:36;28.10;46.60
21355;DHT22;10835;50.148;19.760;2023-10-31T09:55:05;28.20;46.30
21355;DHT22;10835;50.148;19.760;2023-10-31T09:57:34;28.00;46.00
21355;DHT22;10835;50.148;19.760;2023-10-31T10:00:04;27.80;46.80
21355;DHT22;10835;50.148;19.760;2023-10-31T10:02:37;27.60;46.20
21355;DHT22;10835;50.148;19.760;2023-10-31T10:05:07;27.40;47.30
21355;DHT22;10835;50.148;19.760;2023-10-31T10:07:41;27.70;47.70
21355;DHT22;10835;50.148;19.760;2023-10-31T10:10:11;27.70;47.20
21355;DHT22;10835;50.148;19.760;2023-10-31T10:12:42;27.50;46.90
21355;DHT22;10835;50.148;19.760;2023-10-31T10:15:11;27.30;46.40
21355;DHT22;10835;50.148;19.760;2023-10-31T10:17:48;27.00;47.20
21355;DHT22;10835;50.148;19.760;2023-10-31T10:20:17;27.20;47.60
21355;DHT22;10835;50.148;19.760;2023-10-31T10:22:46;27.20;46.80
21355;DHT22;10835;50.148;19.760;2023-10-31T10:25:16;26.80;47.30
21355;DHT22;10835;50.148;19.760;2023-10-31T10:27:46;26.70;47.90
21355;DHT22;10835;50.148;19.760;2023-10-31T10:30:15;27.00;47.80
21355;DHT22;10835;50.148;19.760;2023-10-31T10:32:45;27.00;47.60
21355;DHT22;10835;50.148;19.760;2023-10-31T10:35:13;27.10;47.30
21355;DHT22;10835;50.148;19.760;2023-10-31T10:37:43;26.80;47.70
21355;DHT22;10835;50.148;19.760;2023-10-31T10:40:14;26.50;47.50
21355;DHT22;10835;50.148;19.760;2023-10-31T10:42:45;26.90;47.90
21355;DHT22;10835;50.148;19.760;2023-10-31T10:45:15;27.10;47.40
21355;DHT22;10835;50.148;19.760;2023-10-31T10:47:48;27.00;47.70
21355;DHT22;10835;50.148;19.760;2023-10-31T10:50:18;26.70;47.50
21355;DHT22;10835;50.148;19.760;2023-10-31T10:53:03;26.60;48.10
21355;DHT22;10835;50.148;19.760;2023-10-31T10:55:39;25.80;49.60
21355;DHT22;10835;50.148;19.760;2023-10-31T10:58:19;25.60;50.00
21355;DHT22;10835;50.148;19.760;2023-10-31T11:00:50;25.30;50.40
21355;DHT22;10835;50.148;19.760;2023-10-31T11:03:24;25.40;51.20
21355;DHT22;10835;50.148;19.760;2023-10-31T11:05:53;25.80;50.60
21355;DHT22;10835;50.148;19.760;2023-10-31T11:08:23;26.00;50.00
21355;DHT22;10835;50.148;19.760;2023-10-31T11:10:53;26.00;49.50
21355;DHT22;10835;50.148;19.760;2023-10-31T11:13:24;26.00;49.70
21355;DHT22;10835;50.148;19.760;2023-10-31T11:15:57;26.30;49.50
21355;DHT22;10835;50.148;19.760;2023-10-31T11:18:29;26.10;49.20
21355;DHT22;10835;50.148;19.760;2023-10-31T11:20:57;25.90;49.10
21355;DHT22;10835;50.148;19.760;2023-10-31T11:23:27;25.90;49.60
21355;DHT22;10835;50.148;19.760;2023-10-31T11:25:56;25.50;49.60
21355;DHT22;10835;50.148;19.760;2023-10-31T11:28:25;25.40;50.60
21355;DHT22;10835;50.148;19.760;2023-10-31T11:30:54;26.00;50.50
21355;DHT22;10835;50.148;19.760;2023-10-31T11:33:33;26.00;49.70
21355;DHT22;10835;50.148;19.760;2023-10-31T11:36:06;26.10;49.60
21355;DHT22;10835;50.148;19.760;2023-10-31T11:38:36;26.50;49.50
21355;DHT22;10835;50.148;19.760;2023-10-31T11:41:05;26.60;49.10
21355;DHT22;10835;50.148;19.760;2023-10-31T11:43:52;26.70;49.00
21355;DHT22;10835;50.148;19.760;2023-10-31T11:46:24;26.40;48.90
21355;DHT22;10835;50.148;19.760;2023-10-31T11:48:55;26.40;49.20
21355;DHT22;10835;50.148;19.760;2023-10-31T11:51:25;25.80;49.10
21355;DHT22;10835;50.148;19.760;2023-10-31T11:53:53;25.40;50.10
21355;DHT22;10835;50.148;19.760;2023-10-31T11:56:21;25.00;50.50
21355;DHT22;10835;50.148;19.760;2023-10-31T11:58:57;25.00;51.50
21355;DHT22;10835;50.148;19.760;2023-10-31T12:01:26;25.00;51.10
21355;DHT22;10835;50.148;19.760;2023-10-31T12:03:55;25.00;51.40
21355;DHT22;10835;50.148;19.760;2023-10-31T12:06:24;25.40;51.60
21355;DHT22;10835;50.148;19.760;2023-10-31T12:08:53;25.10;50.90
21355;DHT22;10835;50.148;19.760;2023-10-31T12:11:23;25.10;51.20
21355;DHT22;10835;50.148;19.760;2023-10-31T12:13:53;25.50;52.00
21355;DHT22;10835;50.148;19.760;2023-10-31T12:16:27;25.40;50.90
21355;DHT22;10835;50.148;19.760;2023-10-31T12:18:59;25.60;51.30
21355;DHT22;10835;50.148;19.760;2023-10-31T12:21:38;25.80;50.80
21355;DHT22;10835;50.148;19.760;2023-10-31T12:24:08;25.80;50.80
21355;DHT22;10835;50.148;19.760;2023-10-31T12:26:37;25.60;51.00
21355;DHT22;10835;50.148;19.760;2023-10-31T12:29:10;25.50;51.40
21355;DHT22;10835;50.148;19.760;2023-10-31T12:31:46;25.50;51.30
21355;DHT22;10835;50.148;19.760;2023-10-31T12:34:18;26.10;51.10
21355;DHT22;10835;50.148;19.760;2023-10-31T12:36:47;26.00;50.80
21355;DHT22;10835;50.148;19.760;2023-10-31T12:39:18;25.90;50.80
21355;DHT22;10835;50.148;19.760;2023-10-31T12:41:50;25.70;50.90
21355;DHT22;10835;50.148;19.760;2023-10-31T12:44:23;25.90;50.50
21355;DHT22;10835;50.148;19.760;2023-10-31T12:46:52;25.80;51.20
21355;DHT22;10835;50.148;19.760;2023-10-31T12:49:23;25.60;51.60
21355;DHT22;10835;50.148;19.760;2023-10-31T12:51:56;26.20;50.90
21355;DHT22;10835;50.148;19.760;2023-10-31T12:54:30;26.60;50.60
21355;DHT22;10835;50.148;19.760;2023-10-31T12:56:59;26.20;50.30
21355;DHT22;10835;50.148;19.760;2023-10-31T12:59:28;26.00;50.40
21355;DHT22;10835;50.148;19.760;2023-10-31T13:01:57;26.10;50.70
21355;DHT22;10835;50.148;19.760;2023-10-31T13:04:27;26.50;50.90
21355;DHT22;10835;50.148;19.760;2023-10-31T13:06:59;27.10;50.50
21355;DHT22;10835;50.148;19.760;2023-10-31T13:09:29;27.70;49.20
21355;DHT22;10835;50.148;19.760;2023-10-31T13:12:00;27.90;48.90
21355;DHT22;10835;50.148;19.760;2023-10-31T13:14:29;28.10;48.10
21355;DHT22;10835;50.148;19.760;2023-10-31T13:16:57;28.00;48.30
21355;DHT22;10835;50.148;19.760;2023-10-31T13:19:27;28.30;48.10
21355;DHT22;10835;50.148;19.760;2023-10-31T13:21:56;28.40;47.50
21355;DHT22;10835;50.148;19.760;2023-10-31T13:24:24;28.20;47.50
21355;DHT22;10835;50.148;19.760;2023-10-31T13:26:52;28.00;47.90
21355;DHT22;10835;50.148;19.760;2023-10-31T13:29:21;28.20;48.10
21355;DHT22;10835;50.148;19.760;2023-10-31T13:31:52;28.30;48.80
21355;DHT22;10835;50.148;19.760;2023-10-31T13:34:21;28.40;49.20
21355;DHT22;10835;50.148;19.760;2023-10-31T13:36:51;28.50;47.60
21355;DHT22;10835;50.148;19.760;2023-10-31T13:39:21;28.30;47.80
21355;DHT22;10835;50.148;19.760;2023-10-31T13:41:52;28.20;47.90
21355;DHT22;10835;50.148;19.760;2023-10-31T13:44:21;28.20;49.10
21355;DHT22;10835;50.148;19.760;2023-10-31T13:46:52;28.00;49.10
21355;DHT22;10835;50.148;19.760;2023-10-31T13:49:25;27.80;50.50
21355;DHT22;10835;50.148;19.760;2023-10-31T13:51:55;28.10;50.10
21355;DHT22;10835;50.148;19.760;2023-10-31T13:54:23;28.30;49.80
21355;DHT22;10835;50.148;19.760;2023-10-31T13:56:52;28.10;50.90
21355;DHT22;10835;50.148;19.760;2023-10-31T13:59:21;28.40;50.40
21355;DHT22;10835;50.148;19.760;2023-10-31T14:01:49;28.50;50.70
21355;DHT22;10835;50.148;19.760;2023-10-31T14:04:19;28.30;50.80
21355;DHT22;10835;50.148;19.760;2023-10-31T14:06:48;28.10;51.70
21355;DHT22;10835;50.148;19.760;2023-10-31T14:09:17;28.20;51.80
21355;DHT22;10835;50.148;19.760;2023-10-31T14:11:46;28.20;52.40
21355;DHT22;10835;50.148;19.760;2023-10-31T14:14:14;28.30;52.40
21355;DHT22;10835;50.148;19.760;2023-10-31T14:16:43;28.40;52.00
21355;DHT22;10835;50.148;19.760;2023-10-31T14:19:12;28.20;52.10
21355;DHT22;10835;50.148;19.760;2023-10-31T14:21:41;28.30;52.30
21355;DHT22;10835;50.148;19.760;2023-10-31T14:24:09;28.00;52.50
21355;DHT22;10835;50.148;19.760;2023-10-31T14:26:41;28.20;52.50
21355;DHT22;10835;50.148;19.760;2023-10-31T14:29:12;28.30;51.90
21355;DHT22;10835;50.148;19.760;2023-10-31T14:31:41;28.40;52.20
21355;DHT22;10835;50.148;19.760;2023-10-31T14:34:10;27.70;52.40
21355;DHT22;10835;50.148;19.760;2023-10-31T14:36:38;26.90;52.70
21355;DHT22;10835;50.148;19.760;2023-10-31T14:39:07;26.90;54.00
21355;DHT22;10835;50.148;19.760;2023-10-31T14:41:36;26.50;54.00
21355;DHT22;10835;50.148;19.760;2023-10-31T14:44:06;26.70;54.10
21355;DHT22;10835;50.148;19.760;2023-10-31T14:46:35;26.60;54.10
21355;DHT22;10835;50.148;19.760;2023-10-31T14:49:04;25.90;54.90
21355;DHT22;10835;50.148;19.760;2023-10-31T14:51:32;25.60;55.10
21355;DHT22;10835;50.148;19.760;2023-10-31T14:54:01;25.80;55.70
21355;DHT22;10835;50.148;19.760;2023-10-31T14:56:29;25.40;55.70
21355;DHT22;10835;50.148;19.760;2023-10-31T14:58:58;24.90;57.00
21355;DHT22;10835;50.148;19.760;2023-10-31T15:01:28;24.70;57.30
21355;DHT22;10835;50.148;19.760;2023-10-31T15:03:57;24.30;58.40
21355;DHT22;10835;50.148;19.760;2023-10-31T15:06:25;24.20;58.20
21355;DHT22;10835;50.148;19.760;2023-10-31T15:08:54;24.30;58.90
21355;DHT22;10835;50.148;19.760;2023-10-31T15:11:22;24.50;58.80
21355;DHT22;10835;50.148;19.760;2023-10-31T15:13:50;24.50;58.50
21355;DHT22;10835;50.148;19.760;2023-10-31T15:16:19;24.50;58.60
21355;DHT22;10835;50.148;19.760;2023-10-31T15:18:49;24.70;59.00
21355;DHT22;10835;50.148;19.760;2023-10-31T15:21:17;24.80;58.50
21355;DHT22;10835;50.148;19.760;2023-10-31T15:23:45;25.10;58.60
21355;DHT22;10835;50.148;19.760;2023-10-31T15:26:14;25.00;58.10
21355;DHT22;10835;50.148;19.760;2023-10-31T15:28:43;24.80;58.10